sensor_id;sensor_type;location;lat;lon;timestamp;temperature;humidity
54558;DHT22;40452;50.080;20.040;2022-11-20T07:07:36;17.90;33.40
54558;DHT22;40452;50.080;20.040;2022-11-20T07:10:02;18.60;34.50
54558;DHT22;40452;50.080;20.040;2022-11-20T07:12:27;18.60;34.50
54558;DHT22;40452;50.080;20.040;2022-11-20T07:14:53;18.70;34.40
54558;DHT22;40452;50.080;20.040;2022-11-20T07:17:18;18.70;34.70
54558;DHT22;40452;50.080;20.040;2022-11-20T07:19:44;18.70;34.80
54558;DHT22;40452;50.080;20.040;2022-11-20T07:22:09;18.70;34.90
54558;DHT22;40452;50.080;20.040;2022-11-20T07:24:35;18.70;35.20
54558;DHT22;40452;50.080;20.040;2022-11-20T07:27:01;18.70;35.40
54558;DHT22;40452;50.080;20.040;2022-11-20T07:29:26;18.70;35.40
54558;DHT22;40452;50.080;20.040;2022-11-20T07:31:52;18.70;35.60
54558;DHT22;40452;50.080;20.040;2022-11-20T07:34:17;18.70;35.70
54558;DHT22;40452;50.080;20.040;2022-11-20T07:36:43;18.70;36.00
54558;DHT22;40452;50.080;20.040;2022-11-20T07:39:08;18.80;36.40
54558;DHT22;40452;50.080;20.040;2022-11-20T07:41:34;18.80;36.70
54558;DHT22;40452;50.080;20.040;2022-11-20T07:43:59;18.80;36.90
54558;DHT22;40452;50.080;20.040;2022-11-20T07:46:25;18.90;37.00
54558;DHT22;40452;50.080;20.040;2022-11-20T07:48:50;18.90;36.80
54558;DHT22;40452;50.080;20.040;2022-11-20T07:51:16;18.90;36.80
54558;DHT22;40452;50.080;20.040;2022-11-20T07:53:41;19.00;36.60
54558;DHT22;40452;50.080;20.040;2022-11-20T07:56:07;19.00;36.60
54558;DHT22;40452;50.080;20.040;2022-11-20T07:58:32;19.10;36.30
54558;DHT22;40452;50.080;20.040;2022-11-20T08:01:04;19.20;36.30
54558;DHT22;40452;50.080;20.040;2022-11-20T08:03:30;19.20;36.40
54558;DHT22;40452;50.080;20.040;2022-11-20T08:05:58;19.20;36.40
54558;DHT22;40452;50.080;20.040;2022-11-20T08:08:25;19.30;36.00
54558;DHT22;40452;50.080;20.040;2022-11-20T08:10:50;19.30;35.50
54558;DHT22;40452;50.080;20.040;2022-11-20T08:13:16;19.30;35.10
54558;DHT22;40452;50.080;20.040;2022-11-20T08:16:00;19.20;35.20
54558;DHT22;40452;50.080;20.040;2022-11-20T08:18:25;19.30;35.10
54558;DHT22;40452;50.080;20.040;2022-11-20T08:20:51;19.40;35.40
54558;DHT22;40452;50.080;20.040;2022-11-20T08:23:16;19.30;35.20
54558;DHT22;40452;50.080;20.040;2022-11-20T08:25:42;19.40;35.40
54558;DHT22;40452;50.080;20.040;2022-11-20T08:28:09;19.40;35.30
54558;DHT22;40452;50.080;20.040;2022-11-20T08:30:35;19.40;35.10
54558;DHT22;40452;50.080;20.040;2022-11-20T08:33:04;19.40;35.30
54558;DHT22;40452;50.080;20.040;2022-11-20T08:35:33;19.40;35.40
54558;DHT22;40452;50.080;20.040;2022-11-20T08:38:00;19.30;35.40
54558;DHT22;40452;50.080;20.040;2022-11-20T08:40:25;19.30;35.50
54558;DHT22;40452;50.080;20.040;2022-11-20T08:42:52;19.40;35.60
54558;DHT22;40452;50.080;20.040;2022-11-20T08:45:18;19.40;36.00
54558;DHT22;40452;50.080;20.040;2022-11-20T08:47:44;19.40;35.90
54558;DHT22;40452;50.080;20.040;2022-11-20T08:50:11;19.50;36.30
54558;DHT22;40452;50.080;20.040;2022-11-20T08:52:37;19.50;35.60
54558;DHT22;40452;50.080;20.040;2022-11-20T08:55:04;19.60;35.40
54558;DHT22;40452;50.080;20.040;2022-11-20T08:57:34;19.70;35.10
54558;DHT22;40452;50.080;20.040;2022-11-20T09:00:00;19.70;35.10
54558;DHT22;40452;50.080;20.040;2022-11-20T09:02:26;19.60;35.00
54558;DHT22;40452;50.080;20.040;2022-11-20T09:04:51;19.60;35.10
54558;DHT22;40452;50.080;20.040;2022-11-20T09:07:18;19.70;35.10
54558;DHT22;40452;50.080;20.040;2022-11-20T09:09:44;19.70;35.30
54558;DHT22;40452;50.080;20.040;2022-11-20T09:12:09;19.80;35.20
54558;DHT22;40452;50.080;20.040;2022-11-20T09:14:35;19.80;35.20
54558;DHT22;40452;50.080;20.040;2022-11-20T09:17:00;19.80;35.20
54558;DHT22;40452;50.080;20.040;2022-11-20T09:19:26;19.80;35.20
54558;DHT22;40452;50.080;20.040;2022-11-20T09:21:52;19.80;35.20
54558;DHT22;40452;50.080;20.040;2022-11-20T09:24:19;19.80;35.00
54558;DHT22;40452;50.080;20.040;2022-11-20T09:26:49;19.80;35.50
54558;DHT22;40452;50.080;20.040;2022-11-20T09:29:16;19.80;35.00
54558;DHT22;40452;50.080;20.040;2022-11-20T09:31:42;19.80;36.00
54558;DHT22;40452;50.080;20.040;2022-11-20T09:34:07;19.80;34.60
54558;DHT22;40452;50.080;20.040;2022-11-20T09:36:33;19.70;34.70
54558;DHT22;40452;50.080;20.040;2022-11-20T09:38:59;19.80;35.20
54558;DHT22;40452;50.080;20.040;2022-11-20T09:41:44;19.80;35.50
54558;DHT22;40452;50.080;20.040;2022-11-20T09:44:37;19.80;35.60
54558;DHT22;40452;50.080;20.040;2022-11-20T09:55:31;19.70;35.50
54558;DHT22;40452;50.080;20.040;2022-11-20T09:57:57;19.60;35.40
54558;DHT22;40452;50.080;20.040;2022-11-20T10:00:24;19.70;35.40
54558;DHT22;40452;50.080;20.040;2022-11-20T10:02:58;19.70;35.30
54558;DHT22;40452;50.080;20.040;2022-11-20T10:05:30;19.70;35.90
54558;DHT22;40452;50.080;20.040;2022-11-20T10:08:16;19.70;36.60
54558;DHT22;40452;50.080;20.040;2022-11-20T10:11:04;19.60;36.70
54558;DHT22;40452;50.080;20.040;2022-11-20T10:16:36;19.70;35.80
54558;DHT22;40452;50.080;20.040;2022-11-20T10:25:01;19.70;35.50
54558;DHT22;40452;50.080;20.040;2022-11-20T10:27:48;19.70;36.30
54558;DHT22;40452;50.080;20.040;2022-11-20T10:30:19;19.70;36.90
54558;DHT22;40452;50.080;20.040;2022-11-20T10:32:50;19.80;36.50
54558;DHT22;40452;50.080;20.040;2022-11-20T10:35:34;19.80;36.80
54558;DHT22;40452;50.080;20.040;2022-11-20T10:38:04;19.80;37.10
54558;DHT22;40452;50.080;20.040;2022-11-20T10:40:41;19.90;36.90
54558;DHT22;40452;50.080;20.040;2022-11-20T10:43:32;19.90;36.80
54558;DHT22;40452;50.080;20.040;2022-11-20T10:46:05;19.90;36.80
54558;DHT22;40452;50.080;20.040;2022-11-20T10:48:32;19.90;37.00
54558;DHT22;40452;50.080;20.040;2022-11-20T10:51:21;19.90;37.00
54558;DHT22;40452;50.080;20.040;2022-11-20T10:56:58;19.90;37.30
54558;DHT22;40452;50.080;20.040;2022-11-20T10:59:35;20.00;37.40
54558;DHT22;40452;50.080;20.040;2022-11-20T11:02:15;20.00;37.60
54558;DHT22;40452;50.080;20.040;2022-11-20T11:04:52;19.90;38.30
54558;DHT22;40452;50.080;20.040;2022-11-20T11:07:27;19.90;39.20
54558;DHT22;40452;50.080;20.040;2022-11-20T11:09:55;19.90;39.70
54558;DHT22;40452;50.080;20.040;2022-11-20T11:12:27;19.90;40.20
54558;DHT22;40452;50.080;20.040;2022-11-20T11:14:55;19.90;40.50
54558;DHT22;40452;50.080;20.040;2022-11-20T11:17:29;19.90;40.90
54558;DHT22;40452;50.080;20.040;2022-11-20T11:20:13;19.90;41.30
54558;DHT22;40452;50.080;20.040;2022-11-20T11:23:10;20.00;41.20
54558;DHT22;40452;50.080;20.040;2022-11-20T11:25:56;20.00;41.10
54558;DHT22;40452;50.080;20.040;2022-11-20T11:28:24;20.00;41.20
54558;DHT22;40452;50.080;20.040;2022-11-20T11:30:51;20.10;40.50
54558;DHT22;40452;50.080;20.040;2022-11-20T11:33:31;20.10;40.10
54558;DHT22;40452;50.080;20.040;2022-11-20T11:36:03;20.10;40.00
54558;DHT22;40452;50.080;20.040;2022-11-20T11:38:40;20.10;40.30
54558;DHT22;40452;50.080;20.040;2022-11-20T11:41:12;20.10;39.30
54558;DHT22;40452;50.080;20.040;2022-11-20T11:43:40;20.10;41.60
54558;DHT22;40452;50.080;20.040;2022-11-20T11:46:35;20.10;43.10
54558;DHT22;40452;50.080;20.040;2022-11-20T11:49:18;20.00;45.40
54558;DHT22;40452;50.080;20.040;2022-11-20T11:54:20;20.00;44.90
54558;DHT22;40452;50.080;20.040;2022-11-20T11:56:48;20.10;44.20
54558;DHT22;40452;50.080;20.040;2022-11-20T11:59:29;20.20;44.00
54558;DHT22;40452;50.080;20.040;2022-11-20T12:02:02;20.30;43.60
54558;DHT22;40452;50.080;20.040;2022-11-20T12:04:59;20.30;43.10
54558;DHT22;40452;50.080;20.040;2022-11-20T12:10:20;20.30;42.60
54558;DHT22;40452;50.080;20.040;2022-11-20T12:12:58;20.30;42.40
54558;DHT22;40452;50.080;20.040;2022-11-20T12:15:29;20.30;42.10
54558;DHT22;40452;50.080;20.040;2022-11-20T12:17:55;20.30;41.70
54558;DHT22;40452;50.080;20.040;2022-11-20T12:20:26;20.20;41.60
54558;DHT22;40452;50.080;20.040;2022-11-20T12:23:16;20.10;41.60
54558;DHT22;40452;50.080;20.040;2022-11-20T12:25:51;20.10;41.20
54558;DHT22;40452;50.080;20.040;2022-11-20T12:31:25;20.20;40.80
54558;DHT22;40452;50.080;20.040;2022-11-20T12:34:24;20.20;40.50
54558;DHT22;40452;50.080;20.040;2022-11-20T12:36:59;20.20;40.50
54558;DHT22;40452;50.080;20.040;2022-11-20T12:39:35;20.20;40.20
54558;DHT22;40452;50.080;20.040;2022-11-20T12:45:54;20.20;40.00
54558;DHT22;40452;50.080;20.040;2022-11-20T12:48:42;20.20;39.90
54558;DHT22;40452;50.080;20.040;2022-11-20T12:51:21;20.20;39.80
54558;DHT22;40452;50.080;20.040;2022-11-20T13:01:57;20.20;39.30
54558;DHT22;40452;50.080;20.040;2022-11-20T13:04:39;20.30;39.20
54558;DHT22;40452;50.080;20.040;2022-11-20T13:07:13;20.30;39.20
54558;DHT22;40452;50.080;20.040;2022-11-20T13:09:46;20.20;39.20
54558;DHT22;40452;50.080;20.040;2022-11-20T13:12:36;20.20;39.20
54558;DHT22;40452;50.080;20.040;2022-11-20T13:18:08;20.30;39.20
54558;DHT22;40452;50.080;20.040;2022-11-20T13:20:35;20.20;39.10
54558;DHT22;40452;50.080;20.040;2022-11-20T13:23:01;20.20;39.10
54558;DHT22;40452;50.080;20.040;2022-11-20T13:25:38;20.20;39.00
54558;DHT22;40452;50.080;20.040;2022-11-20T13:28:27;20.20;39.10
54558;DHT22;40452;50.080;20.040;2022-11-20T13:30:55;20.20;39.00
54558;DHT22;40452;50.080;20.040;2022-11-20T13:33:31;20.20;38.90
54558;DHT22;40452;50.080;20.040;2022-11-20T13:35:58;20.30;38.90
54558;DHT22;40452;50.080;20.040;2022-11-20T13:38:24;20.30;38.90
54558;DHT22;40452;50.080;20.040;2022-11-20T13:40:52;20.20;38.80
54558;DHT22;40452;50.080;20.040;2022-11-20T13:43:37;20.20;38.90
54558;DHT22;40452;50.080;20.040;2022-11-20T13:46:06;20.10;38.90
54558;DHT22;40452;50.080;20.040;2022-11-20T13:48:44;20.10;38.80
54558;DHT22;40452;50.080;20.040;2022-11-20T13:51:32;20.10;38.80
54558;DHT22;40452;50.080;20.040;2022-11-20T13:54:39;20.10;38.80
54558;DHT22;40452;50.080;20.040;2022-11-20T14:00:15;20.10;38.60
54558;DHT22;40452;50.080;20.040;2022-11-20T14:02:41;20.10;38.50
54558;DHT22;40452;50.080;20.040;2022-11-20T14:05:19;20.10;38.40
54558;DHT22;40452;50.080;20.040;2022-11-20T14:07:47;20.20;38.50
54558;DHT22;40452;50.080;20.040;2022-11-20T14:10:25;20.10;38.40
54558;DHT22;40452;50.080;20.040;2022-11-20T14:12:51;20.10;38.40
54558;DHT22;40452;50.080;20.040;2022-11-20T14:15:32;20.00;38.40
54558;DHT22;40452;50.080;20.040;2022-11-20T14:17:58;20.00;38.20
54558;DHT22;40452;50.080;20.040;2022-11-20T14:20:29;20.10;38.30
54558;DHT22;40452;50.080;20.040;2022-11-20T14:22:56;20.00;38.50
54558;DHT22;40452;50.080;20.040;2022-11-20T14:25:24;20.00;38.60
54558;DHT22;40452;50.080;20.040;2022-11-20T14:27:57;20.00;38.80
54558;DHT22;40452;50.080;20.040;2022-11-20T14:30:44;20.00;39.20
54558;DHT22;40452;50.080;20.040;2022-11-20T14:33:11;20.00;39.30
54558;DHT22;40452;50.080;20.040;2022-11-20T14:35:44;20.00;40.20
54558;DHT22;40452;50.080;20.040;2022-11-20T14:38:12;20.00;39.40
54558;DHT22;40452;50.080;20.040;2022-11-20T14:40:38;20.10;39.30
54558;DHT22;40452;50.080;20.040;2022-11-20T14:45:43;20.10;39.10
54558;DHT22;40452;50.080;20.040;2022-11-20T14:48:10;20.10;39.10
54558;DHT22;40452;50.080;20.040;2022-11-20T14:50:38;20.20;39.70
54558;DHT22;40452;50.080;20.040;2022-11-20T14:53:03;20.30;39.80
54558;DHT22;40452;50.080;20.040;2022-11-20T14:55:35;20.30;40.00
54558;DHT22;40452;50.080;20.040;2022-11-20T14:58:06;20.40;40.10
54558;DHT22;40452;50.080;20.040;2022-11-20T15:01:05;20.40;39.80
54558;DHT22;40452;50.080;20.040;2022-11-20T15:03:35;20.30;39.80
54558;DHT22;40452;50.080;20.040;2022-11-20T15:06:01;20.30;39.70
54558;DHT22;40452;50.080;20.040;2022-11-20T15:08:27;20.30;39.70
54558;DHT22;40452;50.080;20.040;2022-11-20T15:10:53;20.30;39.90
54558;DHT22;40452;50.080;20.040;2022-11-20T15:13:34;20.30;39.60
54558;DHT22;40452;50.080;20.040;2022-11-20T15:16:02;20.30;39.90
54558;DHT22;40452;50.080;20.040;2022-11-20T15:18:33;20.30;39.50
54558;DHT22;40452;50.080;20.040;2022-11-20T15:21:03;20.30;39.40
54558;DHT22;40452;50.080;20.040;2022-11-20T15:23:29;20.20;39.20
54558;DHT22;40452;50.080;20.040;2022-11-20T15:25:55;20.20;39.10
54558;DHT22;40452;50.080;20.040;2022-11-20T15:28:27;20.20;39.00
54558;DHT22;40452;50.080;20.040;2022-11-20T15:30:54;20.20;38.90
54558;DHT22;40452;50.080;20.040;2022-11-20T15:33:22;20.10;38.80
54558;DHT22;40452;50.080;20.040;2022-11-20T15:35:47;20.10;38.80
54558;DHT22;40452;50.080;20.040;2022-11-20T15:38:15;20.10;38.70
54558;DHT22;40452;50.080;20.040;2022-11-20T15:40:43;20.10;38.10
54558;DHT22;40452;50.080;20.040;2022-11-20T15:43:10;20.10;38.60
54558;DHT22;40452;50.080;20.040;2022-11-20T15:45:47;20.00;38.50
54558;DHT22;40452;50.080;20.040;2022-11-20T15:48:34;20.00;38.30
54558;DHT22;40452;50.080;20.040;2022-11-20T15:53:39;20.00;38.70
54558;DHT22;40452;50.080;20.040;2022-11-20T15:56:12;20.00;38.50
54558;DHT22;40452;50.080;20.040;2022-11-20T15:58:38;20.00;38.80
54558;DHT22;40452;50.080;20.040;2022-11-20T16:01:15;20.00;38.80
54558;DHT22;40452;50.080;20.040;2022-11-20T16:03:41;20.00;38.70
54558;DHT22;40452;50.080;20.040;2022-11-20T16:06:07;20.00;38.50
54558;DHT22;40452;50.080;20.040;2022-11-20T16:08:33;20.00;38.60
54558;DHT22;40452;50.080;20.040;2022-11-20T16:10:59;20.00;38.60
54558;DHT22;40452;50.080;20.040;2022-11-20T16:13:25;20.00;38.30
54558;DHT22;40452;50.080;20.040;2022-11-20T16:16:20;20.00;38.40
54558;DHT22;40452;50.080;20.040;2022-11-20T16:18:46;20.00;38.20
54558;DHT22;40452;50.080;20.040;2022-11-20T16:21:12;20.00;38.20
54558;DHT22;40452;50.080;20.040;2022-11-20T16:23:38;19.90;38.10
54558;DHT22;40452;50.080;20.040;2022-11-20T16:26:12;19.90;38.10
54558;DHT22;40452;50.080;20.040;2022-11-20T16:28:38;19.90;38.10
54558;DHT22;40452;50.080;20.040;2022-11-20T16:31:16;19.90;38.30
54558;DHT22;40452;50.080;20.040;2022-11-20T16:33:42;20.00;39.00
54558;DHT22;40452;50.080;20.040;2022-11-20T16:36:13;20.00;39.20
54558;DHT22;40452;50.080;20.040;2022-11-20T16:38:39;20.00;39.40
54558;DHT22;40452;50.080;20.040;2022-11-20T16:41:06;19.90;39.50
54558;DHT22;40452;50.080;20.040;2022-11-20T16:43:31;20.00;39.50
54558;DHT22;40452;50.080;20.040;2022-11-20T16:45:57;20.00;39.80
54558;DHT22;40452;50.080;20.040;2022-11-20T16:48:22;19.90;40.10
54558;DHT22;40452;50.080;20.040;2022-11-20T16:50:52;20.00;40.90
54558;DHT22;40452;50.080;20.040;2022-11-20T16:53:19;20.00;40.60
54558;DHT22;40452;50.080;20.040;2022-11-20T16:55:45;20.10;39.60
54558;DHT22;40452;50.080;20.040;2022-11-20T16:58:10;20.00;39.60
54558;DHT22;40452;50.080;20.040;2022-11-20T17:00:37;20.00;39.50
54558;DHT22;40452;50.080;20.040;2022-11-20T17:03:04;20.00;39.70
54558;DHT22;40452;50.080;20.040;2022-11-20T17:05:31;20.00;39.80
54558;DHT22;40452;50.080;20.040;2022-11-20T17:07:56;20.00;40.10
54558;DHT22;40452;50.080;20.040;2022-11-20T17:10:22;20.00;40.30
54558;DHT22;40452;50.080;20.040;2022-11-20T17:12:47;20.00;40.40
54558;DHT22;40452;50.080;20.040;2022-11-20T17:15:13;20.00;40.60
54558;DHT22;40452;50.080;20.040;2022-11-20T17:17:38;19.90;40.30
54558;DHT22;40452;50.080;20.040;2022-11-20T17:20:04;19.90;40.40
54558;DHT22;40452;50.080;20.040;2022-11-20T17:22:30;19.90;40.90
54558;DHT22;40452;50.080;20.040;2022-11-20T17:24:56;19.90;40.90
54558;DHT22;40452;50.080;20.040;2022-11-20T17:27:22;19.90;40.70
54558;DHT22;40452;50.080;20.040;2022-11-20T17:29:47;19.90;40.70
54558;DHT22;40452;50.080;20.040;2022-11-20T17:32:13;19.90;40.50
54558;DHT22;40452;50.080;20.040;2022-11-20T17:34:38;19.90;40.40
54558;DHT22;40452;50.080;20.040;2022-11-20T17:37:04;19.90;40.40
54558;DHT22;40452;50.080;20.040;2022-11-20T17:39:29;19.90;40.20
54558;DHT22;40452;50.080;20.040;2022-11-20T17:41:55;19.90;40.00
54558;DHT22;40452;50.080;20.040;2022-11-20T17:44:39;19.90;39.80
54558;DHT22;40452;50.080;20.040;2022-11-20T17:47:07;19.90;39.60
54558;DHT22;40452;50.080;20.040;2022-11-20T17:49:32;19.90;39.60
54558;DHT22;40452;50.080;20.040;2022-11-20T17:51:58;19.80;39.50
54558;DHT22;40452;50.080;20.040;2022-11-20T17:54:24;19.90;39.60
54558;DHT22;40452;50.080;20.040;2022-11-20T17:56:49;19.90;39.50
54558;DHT22;40452;50.080;20.040;2022-11-20T17:59:33;19.80;39.40
54558;DHT22;40452;50.080;20.040;2022-11-20T18:01:59;19.80;39.50
54558;DHT22;40452;50.080;20.040;2022-11-20T18:04:24;19.80;39.40
54558;DHT22;40452;50.080;20.040;2022-11-20T18:06:50;19.80;39.30
54558;DHT22;40452;50.080;20.040;2022-11-20T18:09:16;19.90;39.20
54558;DHT22;40452;50.080;20.040;2022-11-20T18:11:43;19.90;39.20
54558;DHT22;40452;50.080;20.040;2022-11-20T18:14:16;19.90;39.10
54558;DHT22;40452;50.080;20.040;2022-11-20T18:17:13;19.80;39.10
54558;DHT22;40452;50.080;20.040;2022-11-20T18:19:41;19.80;39.10
54558;DHT22;40452;50.080;20.040;2022-11-20T18:22:08;19.80;39.00
54558;DHT22;40452;50.080;20.040;2022-11-20T18:24:34;19.80;38.80
54558;DHT22;40452;50.080;20.040;2022-11-20T18:27:04;19.80;38.90
54558;DHT22;40452;50.080;20.040;2022-11-20T18:29:31;19.90;38.90
54558;DHT22;40452;50.080;20.040;2022-11-20T18:31:57;19.90;39.10
54558;DHT22;40452;50.080;20.040;2022-11-20T18:34:23;19.90;39.00
54558;DHT22;40452;50.080;20.040;2022-11-20T18:36:49;19.90;39.10
54558;DHT22;40452;50.080;20.040;2022-11-20T18:39:14;19.80;39.10
54558;DHT22;40452;50.080;20.040;2022-11-20T18:41:41;19.80;40.10
54558;DHT22;40452;50.080;20.040;2022-11-20T18:44:28;19.80;40.10
54558;DHT22;40452;50.080;20.040;2022-11-20T18:47:15;19.80;40.30
54558;DHT22;40452;50.080;20.040;2022-11-20T18:49:46;19.80;40.00
54558;DHT22;40452;50.080;20.040;2022-11-20T18:52:15;19.80;40.20
54558;DHT22;40452;50.080;20.040;2022-11-20T18:54:41;19.80;40.20
54558;DHT22;40452;50.080;20.040;2022-11-20T18:57:07;19.80;40.20
54558;DHT22;40452;50.080;20.040;2022-11-20T18:59:34;19.80;40.00
54558;DHT22;40452;50.080;20.040;2022-11-20T19:02:00;19.80;40.00
54558;DHT22;40452;50.080;20.040;2022-11-20T19:04:25;19.80;40.20
54558;DHT22;40452;50.080;20.040;2022-11-20T19:06:51;19.80;40.50
54558;DHT22;40452;50.080;20.040;2022-11-20T19:09:20;19.80;40.90
54558;DHT22;40452;50.080;20.040;2022-11-20T19:11:47;19.90;41.10
54558;DHT22;40452;50.080;20.040;2022-11-20T19:14:13;19.90;40.90
54558;DHT22;40452;50.080;20.040;2022-11-20T19:16:39;19.90;41.00
54558;DHT22;40452;50.080;20.040;2022-11-20T19:19:05;19.90;40.90
54558;DHT22;40452;50.080;20.040;2022-11-20T19:21:31;19.90;40.70
54558;DHT22;40452;50.080;20.040;2022-11-20T19:23:58;19.90;40.60
54558;DHT22;40452;50.080;20.040;2022-11-20T19:26:24;20.00;40.60
54558;DHT22;40452;50.080;20.040;2022-11-20T19:28:50;20.00;40.50
54558;DHT22;40452;50.080;20.040;2022-11-20T19:31:18;20.00;40.60
54558;DHT22;40452;50.080;20.040;2022-11-20T19:33:44;20.00;40.40
54558;DHT22;40452;50.080;20.040;2022-11-20T19:36:39;20.00;40.30
54558;DHT22;40452;50.080;20.040;2022-11-20T19:39:06;20.00;40.30
54558;DHT22;40452;50.080;20.040;2022-11-20T19:41:34;20.00;40.10
54558;DHT22;40452;50.080;20.040;2022-11-20T19:44:01;20.00;40.10
54558;DHT22;40452;50.080;20.040;2022-11-20T19:46:28;20.00;39.90
54558;DHT22;40452;50.080;20.040;2022-11-20T19:48:56;20.00;39.90
54558;DHT22;40452;50.080;20.040;2022-11-20T19:51:26;20.00;39.90
54558;DHT22;40452;50.080;20.040;2022-11-20T19:53:54;20.00;39.90
54558;DHT22;40452;50.080;20.040;2022-11-20T19:56:21;20.10;40.00
54558;DHT22;40452;50.080;20.040;2022-11-20T19:58:47;20.10;39.90
54558;DHT22;40452;50.080;20.040;2022-11-20T20:01:17;20.00;39.80
54558;DHT22;40452;50.080;20.040;2022-11-20T20:03:45;20.00;39.80
54558;DHT22;40452;50.080;20.040;2022-11-20T20:06:13;20.00;37.00
54558;DHT22;40452;50.080;20.040;2022-11-20T20:08:40;20.00;37.20
54558;DHT22;40452;50.080;20.040;2022-11-20T20:13:34;20.00;38.20
54558;DHT22;40452;50.080;20.040;2022-11-20T20:16:00;20.00;37.80
54558;DHT22;40452;50.080;20.040;2022-11-20T20:18:25;20.00;37.20
54558;DHT22;40452;50.080;20.040;2022-11-20T20:20:51;19.90;37.50
54558;DHT22;40452;50.080;20.040;2022-11-20T20:23:16;19.90;37.30
54558;DHT22;40452;50.080;20.040;2022-11-20T20:25:46;19.90;38.10
54558;DHT22;40452;50.080;20.040;2022-11-20T20:28:12;19.90;37.30
54558;DHT22;40452;50.080;20.040;2022-11-20T20:30:37;19.90;37.50
54558;DHT22;40452;50.080;20.040;2022-11-20T20:33:03;19.90;37.30
54558;DHT22;40452;50.080;20.040;2022-11-20T20:35:29;19.90;37.40
54558;DHT22;40452;50.080;20.040;2022-11-20T20:37:54;19.90;37.20
54558;DHT22;40452;50.080;20.040;2022-11-20T20:40:20;19.90;37.30
54558;DHT22;40452;50.080;20.040;2022-11-20T20:42:45;19.90;37.30
54558;DHT22;40452;50.080;20.040;2022-11-20T20:45:11;19.80;37.10
54558;DHT22;40452;50.080;20.040;2022-11-20T20:47:38;19.80;37.00
54558;DHT22;40452;50.080;20.040;2022-11-20T20:50:06;19.80;37.10
54558;DHT22;40452;50.080;20.040;2022-11-20T20:52:33;19.80;37.00
54558;DHT22;40452;50.080;20.040;2022-11-20T20:54:58;19.80;37.00
54558;DHT22;40452;50.080;20.040;2022-11-20T20:57:24;19.80;36.90
54558;DHT22;40452;50.080;20.040;2022-11-20T20:59:50;19.80;36.90
54558;DHT22;40452;50.080;20.040;2022-11-20T21:02:22;19.80;36.90
54558;DHT22;40452;50.080;20.040;2022-11-20T21:04:48;19.80;36.80
54558;DHT22;40452;50.080;20.040;2022-11-20T21:07:14;19.80;36.30
54558;DHT22;40452;50.080;20.040;2022-11-20T21:09:40;19.80;36.80
54558;DHT22;40452;50.080;20.040;2022-11-20T21:12:05;19.80;36.70
54558;DHT22;40452;50.080;20.040;2022-11-20T21:14:31;19.80;36.60
54558;DHT22;40452;50.080;20.040;2022-11-20T21:16:57;19.80;36.60
54558;DHT22;40452;50.080;20.040;2022-11-20T21:19:22;19.80;36.60
54558;DHT22;40452;50.080;20.040;2022-11-20T21:21:48;19.80;36.50
